createdAt,value
2023-04-09T00:00:21.563Z,95903.69
2023-04-09T00:04:04.236Z,95900.94
2023-04-09T00:07:46.918Z,95900.59
2023-04-09T00:11:31.188Z,95896.03
2023-04-09T00:15:24.113Z,95898.66
2023-04-09T00:19:13.364Z,95892.78
2023-04-09T00:22:56.507Z,95896.34
2023-04-09T00:26:41.021Z,95895.53
2023-04-09T00:30:23.881Z,95892.13
2023-04-09T00:34:07.046Z,95893.75
2023-04-09T00:37:49.930Z,95893.25
2023-04-09T00:41:32.633Z,95889.66
2023-04-09T00:45:16.616Z,95887.53
2023-04-09T00:48:59.290Z,95890.00
2023-04-09T00:52:43.164Z,95882.00
2023-04-09T00:56:25.839Z,95880.03
2023-04-09T01:00:09.730Z,95881.34
2023-04-09T01:03:53.793Z,95886.56
2023-04-09T01:07:44.152Z,95882.97
2023-04-09T01:11:33.486Z,95885.56
2023-04-09T01:15:19.572Z,95889.16
2023-04-09T01:19:10.769Z,95884.91
2023-04-09T01:22:59.167Z,95882.97
2023-04-09T01:26:49.265Z,95874.47
2023-04-09T01:30:33.370Z,95875.75
2023-04-09T01:34:16.718Z,95883.44
2023-04-09T01:37:59.701Z,95878.06
2023-04-09T01:41:42.632Z,95887.84
2023-04-09T01:45:25.785Z,95888.81
2023-04-09T01:49:15.697Z,95879.34
2023-04-09T01:52:58.365Z,95885.53
2023-04-09T01:56:42.243Z,95890.09
2023-04-09T02:00:32.764Z,95886.19
2023-04-09T02:04:21.440Z,95891.41
2023-04-09T02:08:04.934Z,95884.53
2023-04-09T02:11:48.988Z,95904.09
2023-04-09T02:15:33.158Z,95881.25
2023-04-09T02:19:15.913Z,95876.03
2023-04-09T02:22:59.877Z,95882.28
2023-04-09T02:26:42.537Z,95884.56
2023-04-09T02:30:25.335Z,95877.72
2023-04-09T02:34:08.030Z,95873.78
2023-04-09T02:37:50.663Z,95882.59
2023-04-09T02:41:34.660Z,95881.94
2023-04-09T02:45:17.448Z,95884.53
2023-04-09T02:49:00.131Z,95885.84
2023-04-09T02:52:42.774Z,95882.91
2023-04-09T02:56:25.409Z,95870.81
2023-04-09T03:00:10.938Z,95877.16
2023-04-09T03:03:53.710Z,95861.34
2023-04-09T03:07:36.365Z,95857.63
2023-04-09T03:11:19.028Z,95853.22
2023-04-09T03:15:01.697Z,95859.44
2023-04-09T03:18:45.699Z,95859.44
2023-04-09T03:22:28.361Z,95860.38
2023-04-09T03:26:10.989Z,95853.84
2023-04-09T03:29:56.950Z,95855.13
2023-04-09T03:33:39.573Z,95860.34
2023-04-09T03:37:23.541Z,95854.66
2023-04-09T03:41:06.262Z,95865.91
2023-04-09T03:44:48.924Z,95854.66
2023-04-09T03:48:31.725Z,95869.19
2023-04-09T03:52:14.344Z,95876.34
2023-04-09T03:55:58.358Z,95877.50
2023-04-09T03:59:41.006Z,95878.94
2023-04-09T04:03:23.765Z,95881.53
2023-04-09T04:07:07.705Z,95889.34
2023-04-09T04:10:50.343Z,95892.44
2023-04-09T04:14:34.318Z,95890.59
2023-04-09T04:18:16.947Z,95895.47
2023-04-09T04:21:59.610Z,95896.47
2023-04-09T04:25:42.932Z,95893.81
2023-04-09T04:29:25.606Z,95909.25
2023-04-09T04:33:09.735Z,95909.06
2023-04-09T04:36:52.372Z,95911.00
2023-04-09T04:40:36.813Z,95898.94
2023-04-09T04:44:19.741Z,95897.31
2023-04-09T04:48:02.421Z,95902.00
2023-04-09T04:51:46.542Z,95903.66
2023-04-09T04:55:29.178Z,95894.34
2023-04-09T04:59:11.794Z,95889.75
2023-04-09T05:02:54.590Z,95884.66
2023-04-09T05:06:37.454Z,95883.31
2023-04-09T05:10:21.852Z,95898.16
2023-04-09T05:14:04.761Z,95904.06
2023-04-09T05:17:47.448Z,95918.28
2023-04-09T05:21:30.151Z,95923.19
2023-04-09T05:25:15.989Z,95927.56
2023-04-09T05:29:00.113Z,95930.84
2023-04-09T05:32:42.800Z,95931.84
2023-04-09T05:36:25.958Z,95928.28
2023-04-09T05:40:09.751Z,95929.56
2023-04-09T05:43:52.509Z,95939.97
2023-04-09T05:47:36.963Z,95939.00
2023-04-09T05:51:19.632Z,95934.47
2023-04-09T05:55:02.253Z,95929.91
2023-04-09T05:58:44.926Z,95940.03
2023-04-09T06:02:27.843Z,95929.28
2023-04-09T06:06:11.972Z,95921.69
2023-04-09T06:09:56.038Z,95922.84
2023-04-09T06:13:38.797Z,95926.13
2023-04-09T06:17:21.718Z,95922.53
2023-04-09T06:21:04.794Z,95918.97
2023-04-09T06:24:48.766Z,95931.38
2023-04-09T06:28:31.535Z,95949.00
2023-04-09T06:32:14.213Z,95951.31
2023-04-09T06:35:56.880Z,95947.44
2023-04-09T06:39:42.540Z,95940.84
2023-04-09T06:43:29.049Z,95950.47
2023-04-09T06:47:11.809Z,95952.09
2023-04-09T06:50:54.574Z,95948.72
2023-04-09T06:54:37.230Z,95958.19
2023-04-09T06:58:21.016Z,95961.97
2023-04-09T07:02:05.206Z,95961.81
2023-04-09T07:05:52.054Z,95951.22
2023-04-09T07:09:34.831Z,95954.81
2023-04-09T07:13:17.496Z,95951.53
2023-04-09T07:17:00.126Z,95964.28
2023-04-09T07:20:44.126Z,95959.59
2023-04-09T07:24:26.778Z,95952.88
2023-04-09T07:28:09.503Z,95963.19
2023-04-09T07:31:52.192Z,95959.91
2023-04-09T07:35:35.067Z,95964.00
2023-04-09T07:39:19.454Z,95954.84
2023-04-09T07:43:02.097Z,95959.72
2023-04-09T07:46:45.073Z,95953.50
2023-04-09T07:50:27.915Z,95953.38
2023-04-09T07:54:10.637Z,95954.19
2023-04-09T07:57:54.683Z,95955.78
2023-04-09T08:01:37.746Z,95952.16
2023-04-09T08:05:20.944Z,95953.78
2023-04-09T08:09:03.783Z,95950.13
2023-04-09T08:12:46.432Z,95951.94
2023-04-09T08:16:31.197Z,95953.06
2023-04-09T08:20:14.121Z,95947.63
2023-04-09T08:24:01.222Z,95957.91
2023-04-09T08:27:43.900Z,95956.22
2023-04-09T08:31:27.356Z,95968.56
2023-04-09T08:35:11.910Z,95970.47
2023-04-09T08:38:56.005Z,95973.38
2023-04-09T08:42:41.339Z,95974.50
2023-04-09T08:46:24.879Z,95971.41
2023-04-09T08:50:08.338Z,95970.25
2023-04-09T08:53:57.574Z,95964.09
2023-04-09T08:57:40.545Z,95966.72
2023-04-09T09:01:24.127Z,95967.38
2023-04-09T09:05:07.697Z,95982.41
2023-04-09T09:09:01.485Z,95962.00
2023-04-09T09:12:44.952Z,95969.53
2023-04-09T09:16:28.267Z,95974.91
2023-04-09T09:20:20.799Z,95976.00
2023-04-09T09:24:17.796Z,95986.13
2023-04-09T09:28:09.635Z,95973.22
2023-04-09T09:31:53.846Z,95969.59
2023-04-09T09:35:50.324Z,95975.41
2023-04-09T09:39:45.484Z,95974.44
2023-04-09T09:43:41.748Z,95971.94
2023-04-09T09:47:25.402Z,95972.97
2023-04-09T09:51:10.343Z,95969.25
2023-04-09T09:54:55.741Z,95975.31
2023-04-09T09:58:39.730Z,95968.69
2023-04-09T10:02:26.769Z,95967.44
2023-04-09T10:06:10.465Z,95973.78
2023-04-09T10:09:55.707Z,95976.91
2023-04-09T10:13:40.258Z,95974.72
2023-04-09T10:17:23.023Z,95970.59
2023-04-09T10:21:13.752Z,95968.88
2023-04-09T10:24:58.126Z,95964.94
2023-04-09T10:28:41.312Z,95972.94
2023-04-09T10:32:26.599Z,95973.81
2023-04-09T10:36:13.213Z,95974.81
2023-04-09T10:39:57.920Z,95968.19
2023-04-09T10:43:41.110Z,95967.63
2023-04-09T10:47:32.907Z,95959.47
2023-04-09T10:51:19.844Z,95964.09
2023-04-09T10:55:04.068Z,95966.38
2023-04-09T10:58:46.710Z,95969.25
2023-04-09T11:02:59.235Z,95961.53
2023-04-09T11:06:43.436Z,95967.25
2023-04-09T11:10:28.374Z,95956.31
2023-04-09T11:14:11.082Z,95953.63
2023-04-09T11:17:53.949Z,95951.56
2023-04-09T11:21:37.609Z,95949.91
2023-04-09T11:25:21.358Z,95953.94
2023-04-09T11:29:08.144Z,95945.41
2023-04-09T11:32:51.380Z,95961.22
2023-04-09T11:36:35.763Z,95948.31
2023-04-09T11:40:19.535Z,95946.28
2023-04-09T11:44:03.950Z,95958.03
2023-04-09T11:47:48.411Z,95955.31
2023-04-09T11:51:31.703Z,95958.00
2023-04-09T11:55:24.138Z,95968.47
2023-04-09T11:59:06.858Z,95969.63
2023-04-09T12:02:51.810Z,95973.13
2023-04-09T12:06:39.040Z,95973.75
2023-04-09T12:10:27.095Z,95971.69
2023-04-09T12:14:15.275Z,95983.16
2023-04-09T12:18:01.150Z,95977.78
2023-04-09T12:21:47.822Z,95980.78
2023-04-09T12:25:30.928Z,95962.59
2023-04-09T12:29:15.206Z,95970.88
2023-04-09T12:32:59.581Z,95968.19
2023-04-09T12:36:42.531Z,95958.16
2023-04-09T12:40:25.224Z,95963.25
2023-04-09T12:44:07.945Z,95969.97
2023-04-09T12:47:51.113Z,95966.47
2023-04-09T12:51:35.129Z,95956.94
2023-04-09T12:55:17.881Z,95960.88
2023-04-09T12:59:00.665Z,95958.75
2023-04-09T13:02:43.656Z,95952.25
2023-04-09T13:06:26.410Z,95947.16
2023-04-09T13:10:11.095Z,95949.91
2023-04-09T13:13:54.022Z,95938.97
2023-04-09T13:17:36.932Z,95938.56
2023-04-09T13:21:19.613Z,95952.16
2023-04-09T13:25:02.228Z,95951.91
2023-04-09T13:28:46.294Z,95960.81
2023-04-09T13:32:28.994Z,95956.06
2023-04-09T13:36:12.157Z,95948.56
2023-04-09T13:39:54.879Z,95949.16
2023-04-09T13:43:37.466Z,95936.13
2023-04-09T13:47:21.760Z,95939.06
2023-04-09T13:51:04.591Z,95940.06
2023-04-09T13:54:47.249Z,95942.09
2023-04-09T13:58:29.868Z,95936.13
2023-04-09T14:02:12.594Z,95937.41
2023-04-09T14:05:56.730Z,95929.38
2023-04-09T14:09:39.385Z,95930.66
2023-04-09T14:13:22.037Z,95920.94
2023-04-09T14:17:04.747Z,95931.84
2023-04-09T14:20:47.390Z,95928.25
2023-04-09T14:24:31.377Z,95918.50
2023-04-09T14:28:14.016Z,95914.06
2023-04-09T14:31:57.400Z,95912.72
2023-04-09T14:35:40.064Z,95922.31
2023-04-09T14:39:22.747Z,95918.78
2023-04-09T14:43:06.773Z,95910.56
2023-04-09T14:46:49.454Z,95901.78
2023-04-09T14:50:32.259Z,95895.47
2023-04-09T14:54:17.627Z,95901.28
2023-04-09T14:58:01.542Z,95911.63
2023-04-09T15:01:45.567Z,95910.84
2023-04-09T15:05:28.224Z,95908.97
2023-04-09T15:09:10.830Z,95906.13
2023-04-09T15:12:53.463Z,95899.53
2023-04-09T15:16:37.434Z,95903.78
2023-04-09T15:20:21.684Z,95904.72
2023-04-09T15:24:04.463Z,95900.63
2023-04-09T15:27:47.192Z,95898.00
2023-04-09T15:31:29.885Z,95905.88
2023-04-09T15:35:14.233Z,95893.91
2023-04-09T15:38:58.211Z,95904.97
2023-04-09T15:42:40.969Z,95903.47
2023-04-09T15:46:23.634Z,95903.00
2023-04-09T15:50:07.415Z,95886.88
2023-04-09T15:53:50.047Z,95887.97
2023-04-09T15:57:34.103Z,95896.47
2023-04-09T16:01:17.262Z,95880.75
2023-04-09T16:05:00.017Z,95893.84
2023-04-09T16:08:42.656Z,95888.47
2023-04-09T16:12:25.503Z,95885.63
2023-04-09T16:16:09.860Z,95896.34
2023-04-09T16:19:52.747Z,95898.47
2023-04-09T16:23:35.390Z,95903.22
2023-04-09T16:27:18.003Z,95892.81
2023-04-09T16:31:00.741Z,95896.84
2023-04-09T16:34:44.726Z,95884.97
2023-04-09T16:38:29.201Z,95889.34
2023-04-09T16:42:14.350Z,95884.59
2023-04-09T16:45:57.148Z,95891.06
2023-04-09T16:49:39.833Z,95900.97
2023-04-09T16:53:23.833Z,95895.19
2023-04-09T16:57:06.481Z,95900.28
2023-04-09T17:00:50.704Z,95898.19
2023-04-09T17:04:34.729Z,95890.06
2023-04-09T17:08:17.850Z,95897.72
2023-04-09T17:12:01.862Z,95908.47
2023-04-09T17:15:44.468Z,95911.44
2023-04-09T17:19:27.259Z,95908.50
2023-04-09T17:23:09.978Z,95909.78
2023-04-09T17:26:52.756Z,95907.72
2023-04-09T17:30:36.861Z,95903.91
2023-04-09T17:34:19.590Z,95917.28
2023-04-09T17:38:02.369Z,95920.09
2023-04-09T17:41:45.020Z,95914.41
2023-04-09T17:45:27.766Z,95922.06
2023-04-09T17:49:11.896Z,95916.72
2023-04-09T17:52:54.572Z,95920.09
2023-04-09T17:56:39.014Z,95924.66
2023-04-09T18:00:21.783Z,95928.69
2023-04-09T18:04:04.658Z,95930.81
2023-04-09T18:07:48.870Z,95937.84
2023-04-09T18:11:31.892Z,95937.38
2023-04-09T18:15:15.100Z,95942.53
2023-04-09T18:18:57.705Z,95942.78
2023-04-09T18:22:41.287Z,95939.69
2023-04-09T18:26:25.393Z,95941.19
2023-04-09T18:30:09.072Z,95940.47
2023-04-09T18:33:52.350Z,95964.91
2023-04-09T18:37:35.148Z,95965.91
2023-04-09T18:41:23.130Z,95964.22
2023-04-09T18:45:07.905Z,95981.28
2023-04-09T18:48:50.684Z,95972.88
2023-04-09T18:52:33.501Z,95976.88
2023-04-09T18:56:16.092Z,95987.25
2023-04-09T18:59:58.696Z,95981.56
2023-04-09T19:03:43.482Z,95989.16
2023-04-09T19:07:26.417Z,95992.78
2023-04-09T19:11:09.086Z,95989.53
2023-04-09T19:14:51.714Z,95989.91
2023-04-09T19:18:34.942Z,95991.53
2023-04-09T19:22:18.890Z,96000.78
2023-04-09T19:26:01.861Z,95999.94
2023-04-09T19:29:46.187Z,95986.63
2023-04-09T19:33:28.808Z,95985.00
2023-04-09T19:37:34.692Z,95998.69
2023-04-09T19:41:56.578Z,95988.81
2023-04-09T19:45:39.647Z,95978.13
2023-04-09T19:49:22.284Z,95993.59
2023-04-09T19:53:06.917Z,95997.63
2023-04-09T19:56:49.520Z,95993.16
2023-04-09T20:00:33.432Z,95996.84
2023-04-09T20:04:16.241Z,96002.16
2023-04-09T20:07:59.291Z,95995.00
2023-04-09T20:11:43.237Z,95991.09
2023-04-09T20:15:26.613Z,95992.94
2023-04-09T20:19:09.316Z,96000.06
2023-04-09T20:22:56.109Z,95991.59
2023-04-09T20:26:39.187Z,95987.06
2023-04-09T20:30:23.554Z,95995.63
2023-04-09T20:34:06.270Z,95983.59
2023-04-09T20:37:49.937Z,95989.84
2023-04-09T20:41:32.616Z,95983.03
2023-04-09T20:45:15.700Z,95986.03
2023-04-09T20:49:00.681Z,95994.38
2023-04-09T20:52:43.284Z,95983.16
2023-04-09T20:56:26.011Z,96000.50
2023-04-09T21:00:10.175Z,95989.41
2023-04-09T21:03:53.219Z,95998.91
2023-04-09T21:07:37.289Z,96002.16
2023-04-09T21:11:19.988Z,96000.72
2023-04-09T21:15:02.636Z,95991.06
2023-04-09T21:18:46.003Z,96003.34
2023-04-09T21:22:28.588Z,96000.59
2023-04-09T21:26:13.175Z,95998.63
2023-04-09T21:29:55.805Z,95995.34
2023-04-09T21:33:39.051Z,95994.38
2023-04-09T21:37:21.885Z,95992.09
2023-04-09T21:41:04.743Z,95985.72
2023-04-09T21:44:48.733Z,95997.16
2023-04-09T21:48:31.637Z,95991.44
2023-04-09T21:52:15.177Z,96002.22
2023-04-09T21:55:57.882Z,95998.94
2023-04-09T21:59:41.241Z,95999.78
2023-04-09T22:03:25.886Z,96005.81
2023-04-09T22:07:08.712Z,96007.44
2023-04-09T22:10:51.427Z,96011.03
2023-04-09T22:14:34.112Z,96009.56
2023-04-09T22:18:16.913Z,96008.25
2023-04-09T22:22:00.956Z,96021.16
2023-04-09T22:25:43.551Z,96028.03
2023-04-09T22:29:26.514Z,96033.09
2023-04-09T22:33:09.264Z,96020.03
2023-04-09T22:36:51.992Z,96016.28
2023-04-09T22:40:36.184Z,96015.94
2023-04-09T22:44:19.076Z,96031.28
2023-04-09T22:48:01.871Z,96028.66
2023-04-09T22:51:44.522Z,96027.03
2023-04-09T22:55:27.337Z,96016.91
2023-04-09T22:59:11.325Z,96012.00
2023-04-09T23:02:54.121Z,96014.28
2023-04-09T23:06:37.716Z,96009.66
2023-04-09T23:10:20.369Z,95999.38
2023-04-09T23:14:03.052Z,95998.88
2023-04-09T23:17:47.188Z,96004.41
2023-04-09T23:21:29.841Z,96001.47
2023-04-09T23:25:13.317Z,95996.88
2023-04-09T23:28:56.006Z,95990.66
2023-04-09T23:32:38.730Z,95997.84
2023-04-09T23:36:24.144Z,95989.13
2023-04-09T23:40:07.928Z,95982.53
2023-04-09T23:43:51.793Z,95986.59
2023-04-09T23:47:35.996Z,95984.28
2023-04-09T23:51:19.226Z,95974.00
2023-04-09T23:55:03.342Z,95974.47
2023-04-09T23:58:46.375Z,95973.44
